Time;durP1;ratioP1;P1;durP2;ratioP2;P2;SDS_P1;SDS_P2;PMS_P1;PMS_P2;Temp;Humidity;BMP_temperature;BMP_pressure;BME280_temperature;BME280_humidity;BME280_pressure;Samples;Min_cycle;Max_cycle;Signal;HPM_P1;HPM_P2
2021/06/15 00:00:36;;;;;;;4.77;3.93;;;13.80;99.90;;;;;;2080966;28;20460;-74
2021/06/15 00:01:36;;;;;;;5.53;3.70;;;13.80;99.90;;;;;;2080911;28;20189;-74
2021/06/15 00:02:38;;;;;;;3.70;3.40;;;13.70;99.90;;;;;;2088863;28;20290;-73
2021/06/15 00:03:38;;;;;;;5.72;3.60;;;13.70;99.90;;;;;;2089030;28;20176;-73
2021/06/15 00:04:39;;;;;;;5.43;3.80;;;13.70;99.90;;;;;;2089188;28;20172;-73
2021/06/15 00:05:41;;;;;;;6.90;3.88;;;13.70;99.90;;;;;;2097864;28;20209;-73
2021/06/15 00:06:42;;;;;;;5.22;3.60;;;13.70;99.90;;;;;;2080548;28;20243;-73
2021/06/15 00:07:44;;;;;;;3.50;3.20;;;13.70;99.90;;;;;;2081048;28;20193;-74
2021/06/15 00:08:45;;;;;;;5.70;3.50;;;13.70;99.90;;;;;;2089038;28;20272;-74
2021/06/15 00:09:45;;;;;;;6.50;3.90;;;13.60;99.90;;;;;;2080705;28;20552;-74
2021/06/15 00:10:47;;;;;;;5.17;3.63;;;13.60;99.90;;;;;;2080948;28;20219;-74
2021/06/15 00:11:48;;;;;;;5.18;3.80;;;13.60;99.90;;;;;;2089230;28;20210;-74
2021/06/15 00:12:53;;;;;;;5.80;3.83;;;13.60;99.90;;;;;;2097721;28;20172;-74
2021/06/15 00:13:53;;;;;;;7.75;3.88;;;13.60;99.90;;;;;;2097694;28;20182;-73
2021/06/15 00:14:54;;;;;;;5.43;3.50;;;13.60;99.90;;;;;;2098004;28;20199;-74
2021/06/15 00:15:55;;;;;;;5.40;4.17;;;13.50;99.90;;;;;;2097790;28;20534;-74
2021/06/15 00:16:55;;;;;;;4.53;3.80;;;13.50;99.90;;;;;;2097904;28;20229;-74
2021/06/15 00:17:56;;;;;;;5.43;3.67;;;13.50;99.90;;;;;;2097836;28;20272;-74
2021/06/15 00:18:57;;;;;;;4.67;3.80;;;13.50;99.90;;;;;;2097855;28;20543;-73
2021/06/15 00:19:58;;;;;;;5.70;4.13;;;13.40;99.90;;;;;;2097822;28;20245;-73
2021/06/15 00:20:58;;;;;;;5.50;3.80;;;13.40;99.90;;;;;;2088717;28;20206;-73
2021/06/15 00:21:59;;;;;;;4.80;3.63;;;13.40;99.90;;;;;;2088954;28;20270;-73
2021/06/15 00:23:00;;;;;;;4.53;3.80;;;13.40;99.90;;;;;;2088654;28;20176;-73
2021/06/15 00:24:00;;;;;;;6.90;3.87;;;13.40;99.90;;;;;;2088932;28;20180;-73
2021/06/15 00:25:01;;;;;;;4.13;3.60;;;13.40;99.90;;;;;;2088869;28;20520;-74
2021/06/15 00:26:02;;;;;;;6.27;4.23;;;13.40;99.90;;;;;;2088955;28;20176;-73
2021/06/15 00:27:03;;;;;;;5.73;3.63;;;13.40;99.90;;;;;;2097119;28;20172;-72
2021/06/15 00:28:04;;;;;;;5.95;3.65;;;13.40;99.90;;;;;;2088978;28;20168;-74
2021/06/15 00:29:05;;;;;;;5.35;4.03;;;13.40;99.90;;;;;;2080674;28;20616;-74
2021/06/15 00:30:08;;;;;;;4.10;3.70;;;13.40;99.90;;;;;;2080532;28;20200;-74
2021/06/15 00:31:09;;;;;;;4.45;4.03;;;13.40;99.90;;;;;;2081017;28;20268;-73
2021/06/15 00:32:10;;;;;;;4.20;3.80;;;13.30;99.90;;;;;;2088963;28;20172;-73
2021/06/15 00:33:11;;;;;;;4.33;3.70;;;13.30;99.90;;;;;;2097032;28;20206;-75
2021/06/15 00:34:11;;;;;;;4.93;3.73;;;13.30;99.90;;;;;;2097296;28;20247;-74
2021/06/15 00:35:12;;;;;;;7.37;4.23;;;13.30;99.90;;;;;;2080523;28;20211;-73
2021/06/15 00:36:13;;;;;;;5.57;3.70;;;13.20;99.90;;;;;;2080643;28;20678;-74
2021/06/15 00:37:13;;;;;;;5.17;3.77;;;13.30;99.90;;;;;;2088832;28;20172;-73
2021/06/15 00:38:14;;;;;;;6.70;4.03;;;13.20;99.90;;;;;;2088899;28;20577;-74
2021/06/15 00:39:15;;;;;;;8.93;4.30;;;13.30;99.90;;;;;;2097593;28;20255;-73
2021/06/15 00:40:17;;;;;;;7.27;4.20;;;13.20;99.90;;;;;;2097765;28;20589;-73
2021/06/15 00:41:18;;;;;;;4.53;3.92;;;13.20;99.90;;;;;;2097687;28;20690;-73
2021/06/15 00:42:18;;;;;;;4.37;3.97;;;13.20;99.90;;;;;;2097578;28;20182;-74
2021/06/15 00:43:19;;;;;;;5.70;4.30;;;13.20;99.90;;;;;;2088743;28;20670;-73
2021/06/15 00:44:20;;;;;;;5.37;4.00;;;13.10;99.90;;;;;;2080684;28;20227;-73
2021/06/15 00:45:25;;;;;;;5.37;4.30;;;13.10;99.90;;;;;;2080573;28;20185;-74
2021/06/15 00:46:26;;;;;;;6.43;3.80;;;13.10;99.90;;;;;;2089485;28;20196;-73
2021/06/15 00:47:27;;;;;;;5.68;3.72;;;13.10;99.90;;;;;;2088674;28;20593;-73
2021/06/15 00:48:33;;;;;;;5.07;3.87;;;13.10;99.90;;;;;;2080707;28;20208;-73
2021/06/15 00:49:36;;;;;;;4.70;4.20;;;13.10;99.90;;;;;;2080498;28;20640;-73
2021/06/15 00:50:37;;;;;;;4.68;3.90;;;13.10;99.90;;;;;;2080892;28;20250;-73
2021/06/15 00:51:38;;;;;;;4.10;3.63;;;13.10;99.90;;;;;;2088929;28;20678;-73
2021/06/15 00:52:38;;;;;;;4.73;4.10;;;13.00;99.90;;;;;;2096760;28;20180;-73
2021/06/15 00:53:39;;;;;;;3.90;3.60;;;13.00;99.90;;;;;;2097164;28;20243;-73
2021/06/15 00:54:43;;;;;;;4.10;3.57;;;13.00;99.90;;;;;;2097047;28;20201;-72
2021/06/15 00:55:44;;;;;;;5.63;3.65;;;13.00;99.90;;;;;;2088753;28;20305;-73
2021/06/15 00:56:44;;;;;;;5.23;4.07;;;13.00;99.90;;;;;;2088705;28;20222;-73
2021/06/15 00:57:45;;;;;;;4.97;4.23;;;13.00;99.90;;;;;;2097510;28;20669;-73
2021/06/15 00:58:47;;;;;;;5.47;4.07;;;13.00;99.90;;;;;;2088832;28;20235;-73
2021/06/15 00:59:48;;;;;;;4.32;3.92;;;12.90;99.90;;;;;;2088924;28;20763;-73
2021/06/15 01:00:50;;;;;;;7.78;4.43;;;12.90;99.90;;;;;;2097653;28;20174;-73
2021/06/15 01:01:51;;;;;;;5.30;3.95;;;12.90;99.90;;;;;;2097501;28;20668;-72
2021/06/15 01:02:51;;;;;;;4.55;3.70;;;12.90;99.90;;;;;;2097280;28;20266;-73
2021/06/15 01:03:52;;;;;;;7.27;4.30;;;12.90;99.90;;;;;;2088705;28;20614;-72
2021/06/15 01:04:54;;;;;;;5.33;3.90;;;12.90;99.90;;;;;;2080584;28;20169;-73
2021/06/15 01:05:56;;;;;;;4.75;4.07;;;12.90;99.90;;;;;;2080525;28;20218;-73
2021/06/15 01:07:34;;;;;;;7.28;3.85;;;12.90;99.90;;;;;;2088874;28;20704;-72
2021/06/15 01:08:52;;;;;;;5.22;3.40;;;12.80;99.90;;;;;;2088600;28;20191;-73
2021/06/15 01:10:16;;;;;;;4.63;4.00;;;12.80;99.90;;;;;;2082841;28;20651;-73
2021/06/15 01:11:35;;;;;;;7.78;3.90;;;12.80;99.90;;;;;;2091844;28;20194;-74
2021/06/15 01:13:32;;;;;;;5.32;3.80;;;12.70;99.90;;;;;;2097262;28;20297;-74
2021/06/15 01:15:11;;;;;;;4.68;3.42;;;12.70;99.90;;;;;;2079698;28;20203;-73
2021/06/15 01:16:15;;;;;;;5.43;4.13;;;12.70;99.90;;;;;;2088482;28;20211;-72
2021/06/15 01:17:29;;;;;;;4.30;3.90;;;12.70;99.90;;;;;;2096927;28;20198;-73
2021/06/15 01:18:36;;;;;;;5.28;4.00;;;12.70;99.90;;;;;;2089967;28;20230;-73
2021/06/15 01:20:17;;;;;;;5.60;4.03;;;12.70;99.90;;;;;;2081068;28;20199;-73
2021/06/15 01:21:20;;;;;;;5.10;4.25;;;12.70;99.90;;;;;;2085822;28;20183;-73
2021/06/15 01:23:09;;;;;;;7.00;3.80;;;12.60;99.90;;;;;;2088717;28;20195;-73
2021/06/15 01:24:26;;;;;;;8.85;4.03;;;12.60;99.90;;;;;;2096928;28;20642;-73
2021/06/15 01:26:01;;;;;;;4.55;4.10;;;12.60;99.90;;;;;;2088677;28;20250;-73
2021/06/15 01:27:49;;;;;;;5.32;4.28;;;12.60;99.90;;;;;;2085060;28;20179;-73
2021/06/15 01:29:03;;;;;;;5.15;3.90;;;12.60;99.90;;;;;;2094917;28;20167;-73
2021/06/15 01:30:12;;;;;;;4.97;3.85;;;12.60;99.90;;;;;;2088418;28;20164;-73
2021/06/15 01:31:24;;;;;;;5.43;3.83;;;12.60;99.90;;;;;;2081401;28;20180;-73
2021/06/15 01:32:31;;;;;;;5.95;3.97;;;12.60;99.90;;;;;;2090082;28;20213;-73
2021/06/15 01:33:38;;;;;;;5.15;4.10;;;12.60;99.90;;;;;;2088493;28;20655;-72
2021/06/15 01:34:43;;;;;;;4.63;4.05;;;12.60;99.90;;;;;;2081124;28;20176;-73
2021/06/15 01:35:44;;;;;;;6.22;4.50;;;12.60;99.90;;;;;;2080790;28;20230;-73
2021/06/15 01:37:02;;;;;;;5.70;4.33;;;12.60;99.90;;;;;;2080348;28;20282;-73
2021/06/15 01:38:08;;;;;;;7.97;4.40;;;12.50;99.90;;;;;;2090892;28;20418;-73
2021/06/15 01:39:16;;;;;;;5.35;4.57;;;12.50;99.90;;;;;;2088587;28;20164;-73
2021/06/15 01:40:23;;;;;;;5.13;4.07;;;12.50;99.90;;;;;;2081259;28;20190;-73
2021/06/15 01:41:33;;;;;;;4.90;3.70;;;12.40;99.90;;;;;;2072985;28;20177;-73
2021/06/15 01:43:03;;;;;;;8.02;4.55;;;12.40;99.90;;;;;;2081362;28;20172;-73
2021/06/15 01:44:08;;;;;;;4.90;3.92;;;12.40;99.90;;;;;;2082480;28;20196;-73
2021/06/15 01:45:15;;;;;;;5.20;4.32;;;12.40;99.90;;;;;;2080814;28;20179;-72
2021/06/15 01:46:20;;;;;;;4.53;4.10;;;12.40;99.90;;;;;;2072843;28;20830;-72
2021/06/15 01:47:25;;;;;;;6.72;4.10;;;12.40;99.90;;;;;;2073226;28;20183;-73
2021/06/15 01:48:36;;;;;;;5.20;4.70;;;12.40;99.90;;;;;;2072493;28;20196;-73
2021/06/15 01:49:45;;;;;;;5.22;4.45;;;12.40;99.90;;;;;;2066552;28;20187;-73
2021/06/15 01:50:47;;;;;;;7.07;4.60;;;12.30;99.90;;;;;;2074301;28;20171;-73
2021/06/15 01:51:49;;;;;;;6.78;4.60;;;12.30;99.90;;;;;;2080269;28;20674;-73
2021/06/15 01:52:52;;;;;;;5.65;4.60;;;12.30;99.90;;;;;;2080072;28;20223;-72
2021/06/15 01:54:00;;;;;;;4.80;4.07;;;12.30;99.90;;;;;;2080305;28;20668;-72
2021/06/15 01:55:07;;;;;;;7.30;4.53;;;12.30;99.90;;;;;;2089352;28;20243;-73
2021/06/15 01:56:08;;;;;;;4.97;3.97;;;12.30;99.90;;;;;;2088061;28;20234;-73
2021/06/15 01:57:12;;;;;;;6.22;4.15;;;12.30;99.90;;;;;;2080274;28;20710;-72
2021/06/15 01:58:14;;;;;;;4.35;3.95;;;12.30;99.90;;;;;;2080421;28;20237;-73
2021/06/15 01:59:18;;;;;;;4.68;4.25;;;12.30;99.90;;;;;;2088338;28;20580;-74
2021/06/15 02:00:22;;;;;;;6.45;4.05;;;12.30;99.90;;;;;;2080584;28;20195;-72
2021/06/15 02:01:26;;;;;;;5.70;4.00;;;12.30;99.90;;;;;;2080424;28;20192;-73
2021/06/15 02:02:29;;;;;;;5.82;3.95;;;12.20;99.90;;;;;;2080381;28;20258;-72
2021/06/15 02:03:32;;;;;;;6.25;3.90;;;12.20;99.90;;;;;;2088652;28;20187;-73
2021/06/15 02:04:40;;;;;;;5.18;4.45;;;12.20;99.90;;;;;;2096660;28;20183;-73
2021/06/15 02:05:49;;;;;;;6.15;4.25;;;12.20;99.90;;;;;;2088439;28;20243;-73
2021/06/15 02:06:51;;;;;;;4.80;4.38;;;12.20;99.90;;;;;;2082535;28;20515;-73
2021/06/15 02:07:53;;;;;;;5.40;4.65;;;12.10;99.90;;;;;;2081986;28;20203;-73
2021/06/15 02:08:57;;;;;;;4.80;4.15;;;12.10;99.90;;;;;;2081996;28;20185;-73
2021/06/15 02:10:09;;;;;;;8.43;4.85;;;12.10;99.90;;;;;;2090472;28;20595;-73
2021/06/15 02:11:10;;;;;;;7.82;4.80;;;12.10;99.90;;;;;;2089951;28;20176;-73
2021/06/15 02:12:12;;;;;;;5.78;4.53;;;12.10;99.90;;;;;;2081681;28;20266;-73
2021/06/15 02:13:15;;;;;;;5.47;4.43;;;12.10;99.90;;;;;;2081596;28;20214;-73
2021/06/15 02:14:20;;;;;;;7.72;5.20;;;12.10;99.90;;;;;;2081935;28;20187;-73
2021/06/15 02:15:25;;;;;;;6.85;5.20;;;12.00;99.90;;;;;;2089864;28;20564;-73
2021/06/15 02:16:27;;;;;;;6.70;4.70;;;12.00;99.90;;;;;;2074133;28;20674;-73
2021/06/15 02:17:30;;;;;;;6.95;4.80;;;12.00;99.90;;;;;;2073794;28;20254;-73
2021/06/15 02:18:32;;;;;;;5.90;4.85;;;12.00;99.90;;;;;;2081907;28;20637;-73
2021/06/15 02:19:36;;;;;;;6.38;5.10;;;12.00;99.90;;;;;;2081692;28;20195;-73
2021/06/15 02:20:43;;;;;;;8.23;5.43;;;12.00;99.90;;;;;;2090399;28;20277;-73
2021/06/15 02:21:49;;;;;;;5.85;4.68;;;12.00;99.90;;;;;;2098159;28;20178;-74
2021/06/15 02:22:53;;;;;;;4.78;4.28;;;12.00;99.90;;;;;;2089725;28;20179;-74
2021/06/15 02:23:59;;;;;;;7.22;4.68;;;12.00;99.90;;;;;;2090227;28;20182;-73
2021/06/15 02:25:01;;;;;;;5.88;4.72;;;12.00;99.90;;;;;;2090029;28;20174;-73
2021/06/15 02:26:09;;;;;;;5.65;4.45;;;12.00;99.90;;;;;;2090093;28;20183;-74
2021/06/15 02:27:15;;;;;;;6.97;4.57;;;12.00;99.90;;;;;;2089829;28;20171;-73
2021/06/15 02:28:18;;;;;;;4.88;4.20;;;12.00;99.90;;;;;;2082454;28;20171;-72
2021/06/15 02:29:19;;;;;;;5.80;4.85;;;12.00;99.90;;;;;;2081753;28;20821;-73
2021/06/15 02:30:21;;;;;;;5.77;4.20;;;11.90;99.90;;;;;;2089879;28;20207;-73
2021/06/15 02:31:31;;;;;;;5.03;4.53;;;12.00;99.90;;;;;;2089781;28;20570;-73
2021/06/15 02:32:34;;;;;;;7.18;4.15;;;12.00;99.90;;;;;;2082629;28;20196;-73
2021/06/15 02:33:43;;;;;;;5.90;4.50;;;11.90;99.90;;;;;;2082147;28;20180;-73
2021/06/15 02:34:48;;;;;;;6.43;5.07;;;11.90;99.90;;;;;;2082993;28;20623;-73
2021/06/15 02:35:57;;;;;;;5.90;4.40;;;11.90;99.90;;;;;;2090157;28;20183;-73
2021/06/15 02:36:59;;;;;;;5.20;4.70;;;11.90;99.90;;;;;;2088648;28;20198;-74
2021/06/15 02:38:08;;;;;;;7.07;5.03;;;11.90;99.90;;;;;;2082832;28;20581;-73
2021/06/15 02:39:18;;;;;;;6.20;5.13;;;11.90;99.90;;;;;;2084067;28;20262;-74
2021/06/15 02:40:22;;;;;;;7.28;4.55;;;11.90;99.90;;;;;;2085376;28;20237;-73
2021/06/15 02:41:25;;;;;;;5.38;4.57;;;11.80;99.90;;;;;;2081433;28;20261;-74
2021/06/15 02:42:27;;;;;;;7.50;4.70;;;11.90;99.90;;;;;;2081458;28;20302;-73
2021/06/15 02:43:29;;;;;;;6.13;4.57;;;11.80;99.90;;;;;;2081381;28;20190;-74
2021/06/15 02:44:34;;;;;;;6.40;4.95;;;11.80;99.90;;;;;;2073428;28;20566;-73
2021/06/15 02:45:36;;;;;;;5.30;4.38;;;11.80;99.90;;;;;;2073732;28;20182;-73
2021/06/15 02:46:40;;;;;;;7.25;4.50;;;11.80;99.90;;;;;;2073462;28;20708;-74
2021/06/15 02:47:44;;;;;;;6.45;4.57;;;11.80;99.90;;;;;;2073633;28;20197;-74
2021/06/15 02:48:52;;;;;;;6.68;4.70;;;11.80;99.90;;;;;;2074063;28;20187;-74
2021/06/15 02:49:59;;;;;;;4.80;4.13;;;11.80;99.90;;;;;;2074166;28;20192;-73
2021/06/15 02:51:02;;;;;;;7.88;4.72;;;11.80;99.90;;;;;;2065944;28;20272;-73
2021/06/15 02:52:16;;;;;;;6.88;4.60;;;11.80;99.90;;;;;;2065432;28;20274;-73
2021/06/15 02:53:28;;;;;;;6.03;4.18;;;11.80;99.90;;;;;;2081307;28;20167;-73
2021/06/15 02:54:35;;;;;;;6.13;4.80;;;11.80;99.90;;;;;;2074601;28;20631;-73
2021/06/15 02:55:58;;;;;;;5.22;4.20;;;11.80;99.90;;;;;;2074169;28;20165;-74
2021/06/15 02:57:00;;;;;;;7.03;4.43;;;11.80;99.90;;;;;;2076156;28;20185;-74
2021/06/15 02:58:01;;;;;;;6.07;4.38;;;11.80;99.90;;;;;;2081193;28;20171;-73
2021/06/15 02:59:02;;;;;;;6.72;4.60;;;11.80;99.90;;;;;;2081480;28;20310;-73
2021/06/15 03:00:07;;;;;;;6.83;4.40;;;11.80;99.90;;;;;;2081385;28;20173;-74
2021/06/15 03:01:08;;;;;;;7.68;4.82;;;11.80;99.90;;;;;;2082159;28;20168;-74
2021/06/15 03:02:09;;;;;;;5.70;4.97;;;11.80;99.90;;;;;;2081050;28;20209;-73
2021/06/15 03:03:10;;;;;;;6.07;4.50;;;11.70;99.90;;;;;;2073098;28;20179;-74
2021/06/15 03:04:10;;;;;;;5.53;4.93;;;11.70;99.90;;;;;;2081306;28;20179;-73
2021/06/15 03:05:17;;;;;;;5.70;4.33;;;11.70;99.90;;;;;;2090221;28;20191;-74
2021/06/15 03:06:18;;;;;;;7.97;5.05;;;11.70;99.90;;;;;;2081255;28;20196;-73
2021/06/15 03:07:18;;;;;;;6.57;4.17;;;11.70;99.90;;;;;;2082090;28;20251;-73
2021/06/15 03:08:19;;;;;;;4.93;4.43;;;11.70;99.90;;;;;;2081239;28;20351;-74
2021/06/15 03:09:20;;;;;;;6.27;4.60;;;11.70;99.90;;;;;;2064949;28;20193;-73
2021/06/15 03:10:23;;;;;;;9.53;4.97;;;11.70;99.90;;;;;;2064927;28;20259;-73
2021/06/15 03:11:26;;;;;;;6.75;4.53;;;11.70;99.90;;;;;;2085477;28;20184;-74
2021/06/15 03:12:30;;;;;;;7.38;4.85;;;11.70;99.90;;;;;;2099134;28;20187;-73
2021/06/15 03:13:58;;;;;;;7.03;4.70;;;11.70;99.90;;;;;;2089547;28;20585;-74
2021/06/15 03:15:09;;;;;;;6.88;4.30;;;11.70;99.90;;;;;;2084874;28;20289;-73
2021/06/15 03:16:15;;;;;;;6.15;4.45;;;11.60;99.90;;;;;;2082631;28;20164;-73
2021/06/15 03:17:16;;;;;;;4.53;4.00;;;11.70;99.90;;;;;;2089810;28;20286;-73
2021/06/15 03:18:32;;;;;;;5.45;4.18;;;11.70;99.90;;;;;;2088286;28;20179;-74
2021/06/15 03:19:48;;;;;;;4.97;4.07;;;11.70;99.90;;;;;;2083215;28;20518;-74
2021/06/15 03:20:50;;;;;;;6.63;4.75;;;11.70;99.90;;;;;;2082960;28;20609;-74
2021/06/15 03:22:05;;;;;;;4.85;4.15;;;11.70;99.90;;;;;;2081313;28;20188;-74
2021/06/15 03:23:40;;;;;;;7.10;4.43;;;11.70;99.90;;;;;;2082735;28;20176;-73
2021/06/15 03:24:50;;;;;;;7.85;4.15;;;11.60;99.90;;;;;;2085733;28;20754;-73
2021/06/15 03:25:54;;;;;;;5.57;4.30;;;11.60;99.90;;;;;;2082362;28;20171;-74
2021/06/15 03:27:09;;;;;;;7.38;4.38;;;11.60;99.90;;;;;;2089861;28;20187;-74
2021/06/15 03:28:21;;;;;;;4.80;4.22;;;11.60;99.90;;;;;;2089322;28;20634;-73
2021/06/15 03:29:24;;;;;;;4.93;4.30;;;11.60;99.90;;;;;;2082401;28;20282;-73
2021/06/15 03:30:26;;;;;;;7.22;4.70;;;11.60;99.90;;;;;;2089291;28;20199;-74
2021/06/15 03:31:32;;;;;;;6.35;4.47;;;11.60;99.90;;;;;;2081000;28;20291;-73
2021/06/15 03:32:33;;;;;;;6.10;4.20;;;11.60;99.90;;;;;;2081521;28;20164;-74
2021/06/15 03:33:36;;;;;;;5.50;4.20;;;11.50;99.90;;;;;;2080968;28;20182;-73
2021/06/15 03:34:46;;;;;;;6.32;4.78;;;11.50;99.90;;;;;;2081266;28;20191;-74
2021/06/15 03:35:54;;;;;;;6.35;4.65;;;11.60;99.90;;;;;;2089148;28;20676;-73
2021/06/15 03:36:57;;;;;;;5.80;4.10;;;11.60;99.90;;;;;;2081993;28;20167;-74
2021/06/15 03:38:03;;;;;;;4.72;4.18;;;11.60;99.90;;;;;;2081087;28;20554;-73
2021/06/15 03:39:05;;;;;;;6.57;4.65;;;11.60;99.90;;;;;;2081754;28;20166;-73
2021/06/15 03:40:08;;;;;;;7.28;4.20;;;11.60;99.90;;;;;;2081012;28;20203;-74
2021/06/15 03:41:12;;;;;;;5.45;4.55;;;11.60;99.90;;;;;;2081176;28;20255;-73
2021/06/15 03:42:20;;;;;;;7.50;4.28;;;11.60;99.90;;;;;;2089185;28;20236;-73
2021/06/15 03:43:21;;;;;;;5.57;4.25;;;11.60;99.90;;;;;;2097455;28;20576;-74
2021/06/15 03:44:22;;;;;;;6.03;4.65;;;11.60;99.90;;;;;;2089056;28;20187;-74
2021/06/15 03:45:28;;;;;;;7.45;4.53;;;11.60;99.90;;;;;;2081091;28;20179;-74
2021/06/15 03:46:32;;;;;;;5.85;4.50;;;11.60;99.90;;;;;;2089622;28;20223;-73
2021/06/15 03:47:36;;;;;;;6.05;4.45;;;11.60;99.90;;;;;;2089112;28;20176;-74
2021/06/15 03:48:47;;;;;;;5.47;4.20;;;11.60;99.90;;;;;;2081204;28;20238;-73
2021/06/15 03:49:48;;;;;;;5.90;4.22;;;11.70;99.90;;;;;;2082287;28;20171;-73
2021/06/15 03:50:52;;;;;;;4.90;4.40;;;11.60;99.90;;;;;;2080889;28;20590;-74
2021/06/15 03:51:58;;;;;;;5.20;4.70;;;11.60;99.90;;;;;;2089477;28;20259;-73
2021/06/15 03:53:01;;;;;;;6.13;4.20;;;11.60;99.90;;;;;;2088916;28;20164;-74
2021/06/15 03:54:09;;;;;;;4.97;4.50;;;11.70;99.90;;;;;;2081228;28;20190;-73
2021/06/15 03:55:13;;;;;;;7.85;4.55;;;11.70;99.90;;;;;;2081744;28;20163;-73
2021/06/15 03:56:14;;;;;;;5.40;3.95;;;11.70;99.90;;;;;;2081463;28;20195;-73
2021/06/15 03:57:16;;;;;;;5.95;4.43;;;11.70;99.90;;;;;;2080950;28;20159;-73
2021/06/15 03:58:18;;;;;;;7.35;4.50;;;11.70;99.90;;;;;;2080797;28;20179;-74
2021/06/15 03:59:23;;;;;;;4.50;4.05;;;11.70;99.90;;;;;;2089556;28;20179;-74
2021/06/15 04:00:25;;;;;;;4.70;4.28;;;11.70;99.90;;;;;;2089819;28;20172;-74
2021/06/15 04:01:27;;;;;;;5.65;4.30;;;11.70;99.90;;;;;;2073514;28;20275;-74
2021/06/15 04:02:29;;;;;;;5.97;4.32;;;11.70;99.90;;;;;;2073093;28;20230;-74
2021/06/15 04:03:34;;;;;;;6.40;4.03;;;11.70;99.90;;;;;;2081846;28;20192;-74
2021/06/15 04:04:39;;;;;;;6.00;3.92;;;11.70;99.90;;;;;;2081608;28;20180;-73
2021/06/15 04:05:41;;;;;;;5.18;4.00;;;11.80;99.90;;;;;;2081382;28;20215;-73
2021/06/15 04:06:51;;;;;;;6.78;4.40;;;11.80;99.90;;;;;;2080719;28;20208;-73
2021/06/15 04:07:53;;;;;;;8.38;4.50;;;11.80;99.90;;;;;;2082087;28;20222;-73
2021/06/15 04:09:01;;;;;;;6.22;4.32;;;11.80;99.90;;;;;;2081820;28;20275;-73
2021/06/15 04:10:05;;;;;;;4.10;3.70;;;11.90;99.90;;;;;;2081808;28;20181;-73
2021/06/15 04:11:07;;;;;;;5.55;4.25;;;11.90;99.90;;;;;;2090189;28;20183;-74
2021/06/15 04:12:10;;;;;;;7.07;4.75;;;11.90;99.90;;;;;;2089224;28;20237;-73
2021/06/15 04:13:11;;;;;;;5.90;4.20;;;11.90;99.90;;;;;;2081057;28;20179;-73
2021/06/15 04:14:13;;;;;;;4.90;4.22;;;11.90;99.90;;;;;;2080954;28;20635;-73
2021/06/15 04:15:14;;;;;;;6.22;4.72;;;11.90;99.90;;;;;;2089200;28;20168;-73
2021/06/15 04:16:16;;;;;;;4.90;4.40;;;11.90;99.90;;;;;;2089046;28;20197;-73
2021/06/15 04:17:26;;;;;;;5.30;4.22;;;11.90;99.90;;;;;;2080890;28;20259;-74
2021/06/15 04:18:29;;;;;;;5.13;4.10;;;11.90;99.90;;;;;;2090572;28;20167;-74
2021/06/15 04:19:35;;;;;;;4.78;4.30;;;11.90;99.90;;;;;;2088993;28;20302;-73
2021/06/15 04:20:40;;;;;;;5.57;4.00;;;12.00;99.90;;;;;;2081877;28;20601;-73
2021/06/15 04:21:46;;;;;;;4.80;3.72;;;12.00;99.90;;;;;;2081405;28;20632;-74
2021/06/15 04:22:48;;;;;;;5.00;4.13;;;12.10;99.90;;;;;;2089727;28;20258;-74
2021/06/15 04:24:06;;;;;;;5.50;3.60;;;12.10;99.90;;;;;;2097277;28;20189;-73
2021/06/15 04:25:10;;;;;;;6.15;4.15;;;12.20;99.90;;;;;;2097781;28;20599;-73
2021/06/15 04:26:11;;;;;;;5.53;3.88;;;12.20;99.90;;;;;;2097604;28;20277;-74
2021/06/15 04:27:12;;;;;;;4.33;3.87;;;12.20;99.90;;;;;;2088883;28;20175;-73
2021/06/15 04:28:16;;;;;;;6.27;4.57;;;12.20;99.90;;;;;;2088682;28;20194;-74
2021/06/15 04:29:17;;;;;;;4.82;4.00;;;12.20;99.90;;;;;;2088525;28;20427;-73
2021/06/15 04:30:19;;;;;;;6.13;4.00;;;12.20;99.90;;;;;;2080244;28;20722;-74
2021/06/15 04:31:23;;;;;;;4.00;3.60;;;12.10;99.90;;;;;;2080793;28;20175;-74
2021/06/15 04:32:58;;;;;;;4.45;3.78;;;12.10;99.90;;;;;;2089075;28;20179;-74
2021/06/15 04:34:01;;;;;;;4.10;3.70;;;12.20;99.90;;;;;;2085834;28;20195;-74
2021/06/15 04:35:05;;;;;;;4.70;3.90;;;12.20;99.90;;;;;;2081028;28;20615;-73
2021/06/15 04:36:07;;;;;;;5.18;3.75;;;12.20;99.90;;;;;;2088871;28;20326;-74
2021/06/15 04:37:11;;;;;;;5.75;3.83;;;12.20;99.90;;;;;;2094890;28;20175;-73
2021/06/15 04:38:22;;;;;;;7.25;4.50;;;12.20;99.90;;;;;;2080236;28;20180;-73
2021/06/15 04:39:29;;;;;;;4.60;4.10;;;12.30;99.90;;;;;;2073886;28;20169;-74
2021/06/15 04:40:39;;;;;;;4.45;3.70;;;12.30;99.90;;;;;;2073119;28;20188;-74
2021/06/15 04:41:49;;;;;;;7.50;4.30;;;12.30;99.90;;;;;;2073557;28;20169;-73
2021/06/15 04:42:52;;;;;;;6.13;4.20;;;12.30;99.90;;;;;;2073337;28;20170;-73
2021/06/15 04:44:02;;;;;;;5.47;3.88;;;12.30;99.90;;;;;;2072685;28;20224;-73
2021/06/15 04:45:04;;;;;;;8.25;3.80;;;12.30;99.90;;;;;;2073307;28;20173;-73
2021/06/15 04:46:42;;;;;;;8.30;4.57;;;12.40;99.90;;;;;;2080223;28;20289;-73
2021/06/15 04:47:47;;;;;;;7.55;4.22;;;12.40;99.90;;;;;;2087441;28;20689;-74
2021/06/15 04:49:14;;;;;;;6.53;3.83;;;12.30;99.90;;;;;;2087179;28;20226;-74
2021/06/15 04:50:27;;;;;;;4.47;4.03;;;12.40;99.90;;;;;;2091982;28;20233;-75
2021/06/15 04:51:31;;;;;;;5.03;4.00;;;12.40;99.90;;;;;;2088719;28;20173;-72
2021/06/15 04:52:34;;;;;;;5.05;4.10;;;12.40;99.90;;;;;;2088222;28;20183;-72
2021/06/15 04:53:42;;;;;;;5.97;4.32;;;12.40;99.90;;;;;;2088792;28;20241;-72
2021/06/15 04:54:49;;;;;;;6.13;4.10;;;12.50;99.90;;;;;;2088559;28;20255;-73
2021/06/15 04:55:50;;;;;;;5.13;3.95;;;12.50;99.90;;;;;;2081255;28;20635;-73
2021/06/15 04:56:54;;;;;;;5.10;4.37;;;12.50;99.90;;;;;;2088275;28;20215;-73
2021/06/15 04:57:56;;;;;;;3.90;3.22;;;12.60;99.90;;;;;;2088602;28;20176;-73
2021/06/15 04:59:01;;;;;;;4.35;3.95;;;12.60;99.90;;;;;;2080473;28;20192;-73
2021/06/15 05:00:04;;;;;;;5.28;3.60;;;12.60;99.90;;;;;;2080907;28;20162;-72
2021/06/15 05:01:05;;;;;;;5.15;3.72;;;12.70;99.90;;;;;;2080512;28;20239;-72
2021/06/15 05:02:07;;;;;;;6.60;3.87;;;12.70;99.90;;;;;;2088628;28;20588;-72
2021/06/15 05:03:10;;;;;;;4.88;3.90;;;12.70;99.90;;;;;;2088106;28;20180;-72
2021/06/15 05:04:12;;;;;;;7.82;4.60;;;12.70;99.90;;;;;;2088819;28;20176;-72
2021/06/15 05:05:15;;;;;;;8.70;4.50;;;12.70;99.90;;;;;;2088428;28;20172;-72
2021/06/15 05:06:16;;;;;;;5.13;3.80;;;12.70;99.90;;;;;;2088710;28;20239;-73
2021/06/15 05:07:22;;;;;;;4.82;4.10;;;12.80;99.90;;;;;;2088434;28;20682;-73
2021/06/15 05:08:27;;;;;;;5.43;3.75;;;12.80;99.90;;;;;;2089340;28;20178;-73
2021/06/15 05:09:29;;;;;;;5.07;3.70;;;12.80;99.90;;;;;;2088423;28;20555;-73
2021/06/15 05:10:32;;;;;;;4.10;3.70;;;12.80;99.90;;;;;;2080299;28;20201;-73
2021/06/15 05:11:36;;;;;;;5.25;3.92;;;12.90;99.90;;;;;;2080492;28;20189;-73
2021/06/15 05:12:42;;;;;;;4.53;3.92;;;12.90;99.90;;;;;;2080593;28;20176;-73
2021/06/15 05:13:45;;;;;;;3.80;3.42;;;12.90;99.90;;;;;;2080780;28;20176;-73
2021/06/15 05:14:47;;;;;;;3.80;3.45;;;12.90;99.90;;;;;;2088636;28;20176;-73
2021/06/15 05:15:49;;;;;;;6.45;3.90;;;13.00;99.90;;;;;;2096586;28;20627;-73
2021/06/15 05:16:51;;;;;;;6.03;3.50;;;13.00;99.90;;;;;;2088327;28;20425;-72
2021/06/15 05:17:55;;;;;;;4.10;3.33;;;13.10;99.90;;;;;;2080256;28;20257;-72
2021/06/15 05:18:58;;;;;;;5.05;3.80;;;13.10;99.90;;;;;;2088943;28;20318;-73
2021/06/15 05:20:00;;;;;;;7.63;3.85;;;13.20;99.90;;;;;;2088198;28;20222;-72
2021/06/15 05:21:10;;;;;;;4.55;4.10;;;13.20;99.90;;;;;;2082284;28;20176;-72
2021/06/15 05:22:24;;;;;;;4.50;4.10;;;13.20;99.90;;;;;;2081240;28;20710;-73
2021/06/15 05:23:37;;;;;;;5.65;4.03;;;13.20;99.90;;;;;;2090440;28;20175;-73
2021/06/15 05:24:47;;;;;;;6.63;4.07;;;13.30;99.90;;;;;;2088483;28;20160;-72
2021/06/15 05:25:51;;;;;;;4.78;3.25;;;13.30;99.90;;;;;;2089652;28;20180;-73
2021/06/15 05:26:51;;;;;;;4.80;3.72;;;13.30;99.90;;;;;;2080121;28;20246;-73
2021/06/15 05:27:53;;;;;;;4.57;3.53;;;13.30;99.90;;;;;;2072280;28;20181;-72
2021/06/15 05:28:54;;;;;;;5.53;3.58;;;13.40;99.90;;;;;;2080332;28;20188;-73
2021/06/15 05:29:55;;;;;;;5.80;3.70;;;13.40;99.90;;;;;;2088386;28;20178;-72
2021/06/15 05:30:55;;;;;;;4.63;3.53;;;13.40;99.90;;;;;;2088409;28;20207;-73
2021/06/15 05:31:56;;;;;;;5.13;3.57;;;13.50;99.90;;;;;;2088402;28;20423;-73
2021/06/15 05:32:57;;;;;;;4.73;3.47;;;13.60;99.90;;;;;;2097095;28;20229;-72
2021/06/15 05:33:58;;;;;;;4.10;3.53;;;13.60;99.90;;;;;;2088415;28;20172;-73
2021/06/15 05:35:00;;;;;;;3.70;3.40;;;13.70;99.90;;;;;;2088484;28;20272;-72
2021/06/15 05:36:01;;;;;;;4.10;3.38;;;13.70;99.90;;;;;;2088503;28;20183;-73
2021/06/15 05:37:05;;;;;;;5.45;3.80;;;13.70;99.90;;;;;;2088310;28;20172;-73
2021/06/15 05:38:08;;;;;;;6.25;3.25;;;13.70;99.90;;;;;;2096693;28;20190;-74
2021/06/15 05:39:09;;;;;;;4.68;3.22;;;13.80;99.90;;;;;;2096664;28;20175;-73
2021/06/15 05:40:12;;;;;;;4.17;3.40;;;13.80;99.90;;;;;;2097272;28;20172;-73
2021/06/15 05:41:13;;;;;;;3.90;3.40;;;13.90;99.90;;;;;;2088630;28;20629;-73
2021/06/15 05:42:14;;;;;;;3.53;3.23;;;13.90;99.90;;;;;;2089998;28;20226;-73